aviador You're here:

DTTZ Decoded Metar

TOZEUR in TUNISIA
Report Time2017-11-20 13:00:00
UTC Time2017-11-20 13:17:40
Flight Rules vfr VFR
Wind310° at 02 kt
W.Decomp.*RWY 27: 1.6 kt HW 1.3 kt RCW
W.Rank310° ranks 27
Current wind is below 310° avg. (6.6)
Visibility9999 m
Phenomena:N/A
Clouds:N/A
Expected CloudBase > 7,600 ft AGL from Temp-Dew spread
CeilingNone
Temp21°C (ISA +7)
Dew Point02°C (29% RH)
AAT18.7°C
QNH1023 hPa
Density Alt840 ft
Elevation305 ft
Report Wrong Elevation
Raw Report
METAR DTTZ 201300Z 31002KT CAVOK 21/02 Q1023 NOSIG=####018000317####
SATS42 DTTA 201300

Extra information for DTTZ:More info

Metar Taf Metar & Taf Last 4 Metars F.Rules Stats Wind Profile Meteogram Temp Stats Airport Information Weather charts Add Link Nearby VenuesMetar ALERT Operation Metar Decoded Social comments